Time;durP1;ratioP1;P1;durP2;ratioP2;P2;SDS_P1;SDS_P2;PMS_P1;PMS_P2;Temp;Humidity;BMP_temperature;BMP_pressure;BME280_temperature;BME280_humidity;BME280_pressure;Samples;Min_cycle;Max_cycle;Signal;HPM_P1;HPM_P2
2021/05/02 00:01:09;;;;;;;;;;;;;;;16.03;69.10;98231.91;5135846;27;19924;-76
2021/05/02 00:03:37;;;;;;;;;;;;;;;16.02;69.18;98220.81;5136024;27;19928;-76
2021/05/02 00:06:06;;;;;;;;;;;;;;;16.01;69.01;98211.41;5135852;27;19923;-76
2021/05/02 00:08:35;;;;;;;;;;;;;;;16.04;69.01;98213.00;5135977;27;19923;-77
2021/05/02 00:11:03;;;;;;;;;;;;;;;16.05;69.24;98215.50;5117650;27;19923;-76
2021/05/02 00:13:31;;;;;;;;;;;;;;;16.05;69.59;98204.38;5117570;27;19923;-75
2021/05/02 00:15:58;;;;;;;;;;;;;;;16.05;69.56;98200.03;5135725;27;19984;-75
2021/05/02 00:18:27;;;;;;;;;;;;;;;16.06;69.80;98206.88;5135774;27;20039;-76
2021/05/02 00:20:55;;;;;;;;;;;;;;;16.07;69.56;98203.41;5135733;27;19927;-76
2021/05/02 00:23:23;;;;;;;;;;;;;;;16.07;69.56;98185.41;5135694;27;19923;-76
2021/05/02 00:25:56;;;;;;;;;;;;;;;16.06;69.95;98191.44;5135569;27;20387;-76
2021/05/02 00:28:25;;;;;;;;;;;;;;;16.07;69.89;98193.13;5135617;27;19955;-76
2021/05/02 00:30:53;;;;;;;;;;;;;;;16.06;69.83;98186.28;5135548;27;19924;-76
2021/05/02 00:33:23;;;;;;;;;;;;;;;16.04;70.38;98188.09;5135492;27;20338;-76
2021/05/02 00:35:51;;;;;;;;;;;;;;;16.02;70.70;98205.38;5135413;27;20002;-74
2021/05/02 00:38:28;;;;;;;;;;;;;;;15.98;71.33;98196.09;5135727;27;19923;-71
2021/05/02 00:41:00;;;;;;;;;;;;;;;15.94;72.69;98181.72;5135439;27;19923;-72
2021/05/02 00:43:36;;;;;;;;;;;;;;;15.92;73.53;98175.81;5135993;27;19959;-72
2021/05/02 00:46:10;;;;;;;;;;;;;;;15.91;74.39;98181.84;5135249;27;20369;-72
2021/05/02 00:48:49;;;;;;;;;;;;;;;15.85;75.55;98166.69;5135117;27;19976;-72
2021/05/02 00:51:21;;;;;;;;;;;;;;;15.80;76.22;98155.78;5135515;27;19959;-72
2021/05/02 00:54:11;;;;;;;;;;;;;;;15.72;76.47;98139.03;5135255;27;19923;-73
2021/05/02 00:56:54;;;;;;;;;;;;;;;15.72;77.12;98129.56;5135312;27;19930;-73
2021/05/02 00:59:36;;;;;;;;;;;;;;;15.72;77.55;98132.16;5135229;27;20398;-73
2021/05/02 01:02:10;;;;;;;;;;;;;;;15.69;78.24;98186.28;5134324;27;19924;-72
2021/05/02 01:05:06;;;;;;;;;;;;;;;15.69;78.45;98149.47;5119634;27;20002;-73
2021/05/02 01:07:39;;;;;;;;;;;;;;;15.66;78.91;98154.75;5135329;27;19931;-74
2021/05/02 01:10:09;;;;;;;;;;;;;;;15.67;79.19;98156.44;5135300;27;19927;-73
2021/05/02 01:12:44;;;;;;;;;;;;;;;15.67;79.84;98162.38;5135251;28;20379;-74
2021/05/02 01:15:19;;;;;;;;;;;;;;;15.71;80.02;98148.50;5135385;28;19968;-73
2021/05/02 01:17:52;;;;;;;;;;;;;;;15.79;79.87;98166.97;5135202;28;20019;-74
2021/05/02 01:20:23;;;;;;;;;;;;;;;15.87;80.29;98152.03;5135531;28;19930;-73
2021/05/02 01:22:58;;;;;;;;;;;;;;;15.89;80.09;98152.78;5135511;28;19924;-73
2021/05/02 01:25:30;;;;;;;;;;;;;;;15.90;80.21;98159.59;5135519;28;19972;-73
2021/05/02 01:28:03;;;;;;;;;;;;;;;15.93;80.52;98113.13;5135130;28;19924;-73
2021/05/02 01:30:34;;;;;;;;;;;;;;;15.99;80.81;98117.16;5135152;28;20395;-77
2021/05/02 01:33:05;;;;;;;;;;;;;;;16.32;80.60;98100.09;5135135;28;19923;-73
2021/05/02 01:35:37;;;;;;;;;;;;;;;16.78;79.96;98078.03;5135087;28;19977;-73
2021/05/02 01:38:08;;;;;;;;;;;;;;;16.86;79.81;98073.34;5135055;28;20289;-72
2021/05/02 01:40:40;;;;;;;;;;;;;;;16.84;79.67;98062.28;5134802;28;20010;-72
2021/05/02 01:43:09;;;;;;;;;;;;;;;16.85;79.59;98033.00;5135004;28;19923;-73
2021/05/02 01:45:40;;;;;;;;;;;;;;;16.93;79.34;98036.03;5135145;28;19970;-74
2021/05/02 01:48:14;;;;;;;;;;;;;;;17.01;79.01;98039.00;5134983;28;19927;-73
2021/05/02 01:51:04;;;;;;;;;;;;;;;17.00;78.88;98052.81;5134897;28;20422;-71
2021/05/02 01:53:32;;;;;;;;;;;;;;;16.98;79.00;98062.38;5116372;28;19980;-71
2021/05/02 01:56:13;;;;;;;;;;;;;;;16.89;79.38;98091.22;5134874;28;19931;-74
2021/05/02 01:58:45;;;;;;;;;;;;;;;16.80;79.72;98117.44;5134935;27;20357;-74
2021/05/02 02:01:18;;;;;;;;;;;;;;;16.76;80.04;98115.94;5136837;27;20428;-73
2021/05/02 02:03:50;;;;;;;;;;;;;;;16.69;80.36;98122.31;5138486;27;20262;-73
2021/05/02 02:06:19;;;;;;;;;;;;;;;16.66;80.64;98109.56;5138441;27;19930;-73
2021/05/02 02:08:50;;;;;;;;;;;;;;;16.66;80.71;98109.56;5138701;27;19931;-73
2021/05/02 02:11:22;;;;;;;;;;;;;;;16.74;81.45;98118.59;5138640;27;19927;-73
2021/05/02 02:13:56;;;;;;;;;;;;;;;16.77;81.21;98102.16;5138583;27;19931;-74
2021/05/02 02:16:25;;;;;;;;;;;;;;;16.77;80.99;98096.16;5138186;27;19957;-73
2021/05/02 02:18:56;;;;;;;;;;;;;;;16.75;81.29;98078.19;5138388;27;19923;-73
2021/05/02 02:21:27;;;;;;;;;;;;;;;16.73;81.28;98075.69;5119852;27;20010;-73
2021/05/02 02:24:00;;;;;;;;;;;;;;;16.72;81.44;98063.72;5138096;27;19931;-73
2021/05/02 02:26:30;;;;;;;;;;;;;;;16.73;81.95;98065.41;5137929;27;19923;-74
2021/05/02 02:29:02;;;;;;;;;;;;;;;16.74;81.90;98061.09;5138137;27;19924;-73
2021/05/02 02:31:33;;;;;;;;;;;;;;;16.75;82.04;98065.31;5138166;27;19961;-74
2021/05/02 02:34:03;;;;;;;;;;;;;;;16.81;81.66;98066.75;5119378;27;19924;-72
2021/05/02 02:36:33;;;;;;;;;;;;;;;16.78;81.43;98067.72;5138049;27;19958;-73
2021/05/02 02:39:05;;;;;;;;;;;;;;;16.83;81.76;98062.34;5137844;27;20288;-73
2021/05/02 02:41:38;;;;;;;;;;;;;;;16.87;81.63;98063.88;5138000;27;20400;-73
2021/05/02 02:44:12;;;;;;;;;;;;;;;16.90;81.42;98058.53;5137751;27;19927;-72
2021/05/02 02:46:46;;;;;;;;;;;;;;;16.91;81.33;98060.22;5137704;27;19924;-72
2021/05/02 02:49:19;;;;;;;;;;;;;;;16.88;81.03;98066.34;5137909;27;20303;-72
2021/05/02 02:51:53;;;;;;;;;;;;;;;16.82;81.25;98052.97;5137795;27;19924;-73
2021/05/02 02:54:25;;;;;;;;;;;;;;;16.87;81.17;98051.78;5137747;27;20338;-72
2021/05/02 02:56:58;;;;;;;;;;;;;;;16.93;81.19;98060.94;5137764;27;19972;-72
2021/05/02 02:59:34;;;;;;;;;;;;;;;17.13;80.50;98053.81;5137534;27;19923;-71
2021/05/02 03:02:06;;;;;;;;;;;;;;;17.14;80.07;98050.34;5136492;27;20007;-73
2021/05/02 03:04:39;;;;;;;;;;;;;;;17.06;80.07;98043.94;5137605;27;19931;-72
2021/05/02 03:07:09;;;;;;;;;;;;;;;17.00;80.23;98042.50;5137607;27;19933;-73
2021/05/02 03:09:41;;;;;;;;;;;;;;;16.97;80.40;98041.81;5137427;27;19923;-73
2021/05/02 03:12:13;;;;;;;;;;;;;;;17.01;80.30;98046.75;5136656;27;19962;-73
2021/05/02 03:14:44;;;;;;;;;;;;;;;17.07;80.21;98048.16;5137450;27;20444;-73
2021/05/02 03:17:17;;;;;;;;;;;;;;;17.08;80.21;98050.69;5137305;27;19923;-73
2021/05/02 03:19:51;;;;;;;;;;;;;;;17.11;80.04;98055.66;5137237;27;19923;-73
2021/05/02 03:22:31;;;;;;;;;;;;;;;17.08;80.07;98055.00;5137252;27;19923;-73
2021/05/02 03:25:01;;;;;;;;;;;;;;;17.09;79.84;98049.75;5136932;27;19929;-73
2021/05/02 03:27:36;;;;;;;;;;;;;;;17.06;80.16;98047.31;5136875;27;19923;-74
2021/05/02 03:30:07;;;;;;;;;;;;;;;16.99;80.37;98066.59;5137073;27;19963;-74
2021/05/02 03:32:45;;;;;;;;;;;;;;;16.94;80.39;98063.44;5136847;27;19924;-73
2021/05/02 03:35:14;;;;;;;;;;;;;;;16.95;80.47;98065.13;5136860;27;20365;-73
2021/05/02 03:37:49;;;;;;;;;;;;;;;16.90;80.66;98051.63;5137013;27;19930;-73
2021/05/02 03:40:23;;;;;;;;;;;;;;;16.87;80.71;98046.63;5136768;27;20019;-75
2021/05/02 03:42:55;;;;;;;;;;;;;;;16.81;80.88;98036.66;5136881;27;19923;-74
2021/05/02 03:45:24;;;;;;;;;;;;;;;16.82;81.10;98037.50;5137034;27;19927;-75
2021/05/02 03:47:55;;;;;;;;;;;;;;;16.79;81.41;98033.34;5136553;27;19963;-74
2021/05/02 03:50:23;;;;;;;;;;;;;;;16.78;81.43;98021.34;5136891;27;20400;-75
2021/05/02 03:52:54;;;;;;;;;;;;;;;16.79;81.34;98027.34;5136783;27;19976;-75
2021/05/02 03:55:22;;;;;;;;;;;;;;;16.78;81.13;98016.19;5136647;27;19986;-74
2021/05/02 03:57:55;;;;;;;;;;;;;;;16.80;81.24;98009.22;5136326;27;19924;-74
2021/05/02 04:00:24;;;;;;;;;;;;;;;16.81;81.22;98010.91;5136618;27;19924;-75
2021/05/02 04:02:52;;;;;;;;;;;;;;;16.79;81.25;98007.56;5136247;27;19965;-75
2021/05/02 04:05:23;;;;;;;;;;;;;;;16.82;80.84;98015.13;5136357;27;19924;-75
2021/05/02 04:07:55;;;;;;;;;;;;;;;16.79;81.14;98012.72;5136560;27;19930;-77
2021/05/02 04:10:26;;;;;;;;;;;;;;;16.77;80.95;98024.84;5136340;27;19923;-75
2021/05/02 04:12:58;;;;;;;;;;;;;;;16.75;81.09;98027.50;5136055;27;20010;-75
2021/05/02 04:15:26;;;;;;;;;;;;;;;16.75;80.89;98021.50;5136317;27;19930;-75
2021/05/02 04:17:57;;;;;;;;;;;;;;;16.72;81.11;98021.69;5136143;27;19923;-76
2021/05/02 04:20:31;;;;;;;;;;;;;;;16.72;81.02;98016.53;5135857;27;19969;-76
2021/05/02 04:23:02;;;;;;;;;;;;;;;16.76;81.07;98012.88;5135038;27;20361;-75
2021/05/02 04:25:34;;;;;;;;;;;;;;;16.74;80.95;98014.69;5136066;27;19923;-75
2021/05/02 04:28:13;;;;;;;;;;;;;;;16.75;81.45;98000.88;5135663;27;19930;-73
2021/05/02 04:30:45;;;;;;;;;;;;;;;16.72;81.43;98001.88;5135691;27;19924;-76
2021/05/02 04:33:16;;;;;;;;;;;;;;;16.72;81.30;98001.88;5135956;27;19931;-75
2021/05/02 04:35:47;;;;;;;;;;;;;;;16.71;80.97;98000.25;5136064;27;20284;-74
2021/05/02 04:38:18;;;;;;;;;;;;;;;16.74;81.09;97991.53;5136358;27;20018;-76
2021/05/02 04:40:49;;;;;;;;;;;;;;;16.70;80.73;97997.72;5135610;27;19924;-76
2021/05/02 04:43:21;;;;;;;;;;;;;;;16.66;80.97;98001.38;5135746;27;19934;-76
2021/05/02 04:45:53;;;;;;;;;;;;;;;16.66;81.01;97998.81;5135399;27;19929;-76
2021/05/02 04:48:24;;;;;;;;;;;;;;;16.69;80.96;98004.66;5135370;27;19924;-74
2021/05/02 04:50:56;;;;;;;;;;;;;;;16.73;81.15;97998.41;5117501;27;19923;-73
2021/05/02 04:53:27;;;;;;;;;;;;;;;16.78;81.14;98005.91;5135495;27;20018;-74
2021/05/02 04:55:58;;;;;;;;;;;;;;;16.80;80.94;98006.63;5135359;27;20385;-76
2021/05/02 04:58:54;;;;;;;;;;;;;;;16.80;81.31;98003.22;5135719;27;19931;-75
2021/05/02 05:01:26;;;;;;;;;;;;;;;16.83;81.43;98009.06;5135012;27;19924;-76
2021/05/02 05:03:57;;;;;;;;;;;;;;;16.86;81.23;98011.47;5117231;27;19923;-74
2021/05/02 05:06:28;;;;;;;;;;;;;;;16.87;81.09;98010.56;5135146;27;19938;-74
2021/05/02 05:08:59;;;;;;;;;;;;;;;16.87;81.20;98010.56;5135382;27;19962;-74
2021/05/02 05:11:31;;;;;;;;;;;;;;;16.87;81.19;97997.66;5135314;27;20402;-75
2021/05/02 05:14:03;;;;;;;;;;;;;;;16.88;81.19;98007.06;5135072;27;20023;-75
2021/05/02 05:16:34;;;;;;;;;;;;;;;16.89;81.24;98001.03;5135203;28;20364;-74
2021/05/02 05:19:05;;;;;;;;;;;;;;;16.89;81.08;98013.91;5135272;28;19928;-74
2021/05/02 05:21:37;;;;;;;;;;;;;;;16.93;81.01;98015.41;5135189;28;19930;-75
2021/05/02 05:24:08;;;;;;;;;;;;;;;16.95;80.99;98013.56;5135203;28;20377;-76
2021/05/02 05:26:39;;;;;;;;;;;;;;;17.01;80.77;98015.81;5134805;28;20332;-75
2021/05/02 05:29:08;;;;;;;;;;;;;;;17.05;80.68;98009.59;5134533;28;19962;-76
2021/05/02 05:31:46;;;;;;;;;;;;;;;17.10;80.64;98020.50;5134762;28;19930;-76
2021/05/02 05:34:14;;;;;;;;;;;;;;;17.12;80.52;98013.50;5136719;27;20385;-77
2021/05/02 05:36:45;;;;;;;;;;;;;;;17.14;80.34;98001.38;5139194;27;20345;-76
2021/05/02 05:39:13;;;;;;;;;;;;;;;17.14;80.20;98003.94;5139021;27;19924;-74
2021/05/02 05:41:44;;;;;;;;;;;;;;;17.12;80.01;98004.94;5138885;27;19967;-75
2021/05/02 05:44:17;;;;;;;;;;;;;;;17.11;79.96;98006.69;5138907;27;19924;-75
2021/05/02 05:46:45;;;;;;;;;;;;;;;17.12;80.00;98010.09;5138984;27;19923;-77
2021/05/02 05:49:15;;;;;;;;;;;;;;;17.15;79.75;98007.34;5138793;27;19923;-74
2021/05/02 05:51:44;;;;;;;;;;;;;;;17.14;79.96;98014.25;5138997;27;19924;-75
2021/05/02 05:54:15;;;;;;;;;;;;;;;17.13;80.09;98012.56;5138920;27;19923;-75
2021/05/02 05:56:43;;;;;;;;;;;;;;;17.13;80.32;98016.94;5138690;27;20030;-73
2021/05/02 05:59:11;;;;;;;;;;;;;;;17.10;80.01;98012.75;5138492;27;19923;-73
2021/05/02 06:01:40;;;;;;;;;;;;;;;17.06;80.28;98018.16;5138557;27;19924;-73
2021/05/02 06:04:08;;;;;;;;;;;;;;;17.01;80.23;98018.38;5138596;27;19923;-73
2021/05/02 06:06:36;;;;;;;;;;;;;;;16.96;80.68;98022.97;5138383;27;19924;-73
2021/05/02 06:09:08;;;;;;;;;;;;;;;16.92;80.85;98018.88;5138748;27;19923;-73
2021/05/02 06:11:36;;;;;;;;;;;;;;;16.89;80.91;98024.22;5138331;27;19924;-74
2021/05/02 06:14:05;;;;;;;;;;;;;;;16.84;81.50;98057.13;5138510;27;19955;-74
2021/05/02 06:16:34;;;;;;;;;;;;;;;16.52;80.92;98081.94;5120210;27;20026;-73
2021/05/02 06:19:02;;;;;;;;;;;;;;;16.21;80.26;98101.53;5138134;27;19924;-73
2021/05/02 06:21:31;;;;;;;;;;;;;;;15.95;80.26;98108.75;5138106;27;19924;-74
2021/05/02 06:24:00;;;;;;;;;;;;;;;15.75;80.16;98093.44;5138042;27;19923;-74
2021/05/02 06:26:28;;;;;;;;;;;;;;;15.56;79.69;98107.19;5137875;27;19966;-74
2021/05/02 06:28:56;;;;;;;;;;;;;;;15.41;79.55;98113.84;5119657;27;19924;-73
2021/05/02 06:31:24;;;;;;;;;;;;;;;15.31;79.21;98126.28;5137746;27;19924;-74
2021/05/02 06:33:51;;;;;;;;;;;;;;;15.24;79.24;98136.91;5119397;27;20018;-74
2021/05/02 06:36:21;;;;;;;;;;;;;;;15.15;79.20;98152.72;5137829;27;19923;-73
2021/05/02 06:38:48;;;;;;;;;;;;;;;15.04;79.22;98147.22;5137730;27;20010;-74
2021/05/02 06:41:16;;;;;;;;;;;;;;;14.95;79.05;98156.16;5137761;27;19976;-73
2021/05/02 06:43:43;;;;;;;;;;;;;;;14.86;79.46;98155.69;5137979;27;19988;-72
2021/05/02 06:46:27;;;;;;;;;;;;;;;14.76;79.39;98165.53;5136819;27;20022;-72
2021/05/02 06:48:56;;;;;;;;;;;;;;;14.65;79.27;98173.69;5119345;27;19923;-73
2021/05/02 06:51:25;;;;;;;;;;;;;;;14.58;79.83;98197.97;5137460;27;19976;-73
2021/05/02 06:53:53;;;;;;;;;;;;;;;14.54;79.53;98201.53;5138182;27;20342;-74
2021/05/02 06:56:21;;;;;;;;;;;;;;;14.46;79.40;98216.41;5137385;27;19984;-71
2021/05/02 06:58:50;;;;;;;;;;;;;;;14.42;79.34;98232.81;5137343;27;19931;-73
2021/05/02 07:01:18;;;;;;;;;;;;;;;14.44;79.34;98241.31;5137265;27;19927;-73
2021/05/02 07:03:46;;;;;;;;;;;;;;;14.43;79.76;98249.91;5137588;27;19930;-73
2021/05/02 07:06:32;;;;;;;;;;;;;;;14.42;79.63;98262.81;5137314;27;20025;-73
2021/05/02 07:08:59;;;;;;;;;;;;;;;14.44;79.52;98277.25;5137105;27;19923;-73
2021/05/02 07:11:27;;;;;;;;;;;;;;;14.42;79.17;98283.34;5137170;27;19929;-74
2021/05/02 07:13:55;;;;;;;;;;;;;;;14.36;78.32;98291.25;5137491;27;19930;-73
2021/05/02 07:16:23;;;;;;;;;;;;;;;14.31;77.95;98294.00;5137017;27;19930;-73
2021/05/02 07:18:51;;;;;;;;;;;;;;;14.28;77.77;98291.50;5136921;27;20322;-73
2021/05/02 07:21:20;;;;;;;;;;;;;;;14.28;77.88;98306.91;5136895;27;19923;-73
2021/05/02 07:23:50;;;;;;;;;;;;;;;14.25;77.43;98308.78;5136936;27;19970;-73
2021/05/02 07:26:19;;;;;;;;;;;;;;;14.23;76.89;98313.94;5136908;27;20022;-76
2021/05/02 07:28:46;;;;;;;;;;;;;;;14.19;77.00;98322.66;5136809;27;19930;-73
2021/05/02 07:31:15;;;;;;;;;;;;;;;14.11;76.62;98329.78;5137512;27;19959;-77
2021/05/02 07:33:43;;;;;;;;;;;;;;;14.08;76.32;98335.06;5136784;27;19969;-74
2021/05/02 07:36:12;;;;;;;;;;;;;;;13.99;75.81;98322.53;5136794;27;19930;-74
2021/05/02 07:38:42;;;;;;;;;;;;;;;13.93;75.87;98333.88;5136562;27;19976;-75
2021/05/02 07:41:11;;;;;;;;;;;;;;;13.91;75.52;98334.81;5136767;27;19924;-74
2021/05/02 07:43:40;;;;;;;;;;;;;;;13.86;75.77;98340.13;5136635;27;19946;-74
2021/05/02 07:46:08;;;;;;;;;;;;;;;13.88;75.99;98347.75;5136469;27;19928;-74
2021/05/02 07:48:36;;;;;;;;;;;;;;;13.93;75.64;98351.00;5136738;27;19923;-75
2021/05/02 07:51:04;;;;;;;;;;;;;;;13.92;76.19;98355.28;5136561;27;19927;-74
2021/05/02 07:53:32;;;;;;;;;;;;;;;13.93;75.73;98361.25;5136396;27;19924;-75
2021/05/02 07:56:00;;;;;;;;;;;;;;;13.97;75.93;98363.66;5136245;27;20373;-75
2021/05/02 07:58:30;;;;;;;;;;;;;;;13.98;75.49;98367.91;5136539;27;19931;-74
2021/05/02 08:00:57;;;;;;;;;;;;;;;13.97;75.29;98380.75;5136391;27;19935;-75
2021/05/02 08:03:25;;;;;;;;;;;;;;;13.96;75.31;98391.94;5136199;27;19930;-74
2021/05/02 08:05:54;;;;;;;;;;;;;;;13.98;nan;98400.41;5136127;27;19924;-74
2021/05/02 08:08:22;;;;;;;;;;;;;;;14.05;75.85;98415.53;5135917;27;19923;-74
2021/05/02 08:10:50;;;;;;;;;;;;;;;14.09;75.71;98429.91;5135928;27;19924;-74
2021/05/02 08:13:18;;;;;;;;;;;;;;;14.11;75.42;98432.41;5136147;27;19970;-76
2021/05/02 08:15:47;;;;;;;;;;;;;;;14.13;75.02;98435.78;5135867;27;20385;-74
2021/05/02 08:18:15;;;;;;;;;;;;;;;14.15;74.32;98439.13;5135886;27;19931;-73
2021/05/02 08:20:42;;;;;;;;;;;;;;;14.12;74.37;98444.38;5135657;27;19924;-73
2021/05/02 08:23:10;;;;;;;;;;;;;;;14.20;74.04;98452.66;5136084;27;19923;-74
2021/05/02 08:25:38;;;;;;;;;;;;;;;14.23;73.89;98452.53;5135677;27;20022;-74
2021/05/02 08:28:06;;;;;;;;;;;;;;;14.22;73.38;98458.56;5117271;27;19930;-75
2021/05/02 08:30:34;;;;;;;;;;;;;;;14.25;72.97;98460.19;5135773;27;19923;-74
2021/05/02 08:33:03;;;;;;;;;;;;;;;14.24;72.61;98469.59;5135709;27;19924;-74
2021/05/02 08:35:30;;;;;;;;;;;;;;;14.24;72.17;98474.75;5117471;27;20377;-73
2021/05/02 08:37:59;;;;;;;;;;;;;;;14.27;71.84;98474.66;5117392;27;20354;-74
2021/05/02 08:40:27;;;;;;;;;;;;;;;14.35;72.21;98469.28;5135780;27;19924;-73
2021/05/02 08:42:55;;;;;;;;;;;;;;;14.38;72.14;98472.56;5135929;27;19924;-74
2021/05/02 08:45:24;;;;;;;;;;;;;;;14.45;71.74;98476.56;5117113;27;20322;-73
2021/05/02 08:47:52;;;;;;;;;;;;;;;14.52;71.64;98480.59;5135246;27;19923;-73
2021/05/02 08:50:21;;;;;;;;;;;;;;;14.55;71.28;98495.91;5135203;27;19923;-74
2021/05/02 08:52:49;;;;;;;;;;;;;;;14.54;71.33;98496.78;5135164;27;19923;-73
2021/05/02 08:55:16;;;;;;;;;;;;;;;14.51;71.36;98498.63;5135391;27;19923;-74
2021/05/02 08:57:44;;;;;;;;;;;;;;;14.48;71.16;98496.16;5135198;27;19928;-73
2021/05/02 09:00:13;;;;;;;;;;;;;;;14.48;70.80;98509.84;5135116;27;20373;-73
2021/05/02 09:02:52;;;;;;;;;;;;;;;14.54;71.41;98512.19;5135064;27;20010;-74
2021/05/02 09:05:21;;;;;;;;;;;;;;;14.57;71.55;98509.53;5135712;27;19923;-74
2021/05/02 09:07:49;;;;;;;;;;;;;;;14.59;71.00;98523.13;5116742;27;19924;-74
2021/05/02 09:10:18;;;;;;;;;;;;;;;14.64;71.65;98521.25;5134677;27;20362;-75
2021/05/02 09:12:57;;;;;;;;;;;;;;;14.71;71.16;98527.84;5135374;27;20381;-75
2021/05/02 09:15:32;;;;;;;;;;;;;;;14.87;70.44;98532.44;5135088;27;19923;-74
2021/05/02 09:18:08;;;;;;;;;;;;;;;14.98;70.53;98525.16;5134992;28;19976;-74
2021/05/02 09:20:41;;;;;;;;;;;;;;;15.02;69.90;98537.84;5135200;28;19923;-74
2021/05/02 09:23:08;;;;;;;;;;;;;;;15.10;69.82;98538.41;5134988;28;20010;-74
2021/05/02 09:25:47;;;;;;;;;;;;;;;15.14;69.48;98546.84;5134839;28;20387;-74
2021/05/02 09:28:16;;;;;;;;;;;;;;;15.18;68.58;98543.25;5134490;28;19949;-74
2021/05/02 09:30:44;;;;;;;;;;;;;;;15.21;68.71;98559.38;5134743;28;19945;-74
2021/05/02 09:33:22;;;;;;;;;;;;;;;15.28;68.51;98560.00;5134685;28;19969;-74
2021/05/02 09:35:51;;;;;;;;;;;;;;;15.24;68.47;98563.56;5134850;28;19923;-74
2021/05/02 09:38:19;;;;;;;;;;;;;;;15.18;68.05;98579.25;5116299;28;19990;-74
2021/05/02 09:40:48;;;;;;;;;;;;;;;15.11;67.59;98588.06;5134558;28;20337;-73
2021/05/02 09:43:26;;;;;;;;;;;;;;;15.04;68.02;98591.75;5134677;28;19923;-74
2021/05/02 09:46:07;;;;;;;;;;;;;;;14.93;67.61;98588.72;5134730;28;20007;-74
2021/05/02 09:48:35;;;;;;;;;;;;;;;14.86;68.06;98592.41;5134684;28;19923;-74
2021/05/02 09:51:12;;;;;;;;;;;;;;;14.84;68.05;98596.75;5134923;28;19931;-74
2021/05/02 09:53:57;;;;;;;;;;;;;;;14.89;68.10;98592.28;5134689;28;19923;-75
2021/05/02 09:56:30;;;;;;;;;;;;;;;14.94;67.60;98596.38;5116224;28;20361;-74
2021/05/02 09:58:58;;;;;;;;;;;;;;;15.00;67.18;98605.59;5134598;28;19966;-75
2021/05/02 10:01:26;;;;;;;;;;;;;;;15.04;66.99;98612.31;5134548;28;19946;-75
2021/05/02 10:03:54;;;;;;;;;;;;;;;15.13;66.52;98606.84;5134516;28;19923;-74
2021/05/02 10:06:33;;;;;;;;;;;;;;;15.26;66.34;98614.03;5134596;28;19978;-74
2021/05/02 10:09:06;;;;;;;;;;;;;;;15.37;65.81;98624.78;5134454;28;20406;-74
2021/05/02 10:11:35;;;;;;;;;;;;;;;15.64;64.75;98628.09;5134642;28;19924;-75
2021/05/02 10:14:03;;;;;;;;;;;;;;;16.02;64.26;98637.75;5116153;28;19930;-74
2021/05/02 10:16:31;;;;;;;;;;;;;;;16.34;63.26;98638.19;5134346;28;20042;-75
2021/05/02 10:19:09;;;;;;;;;;;;;;;16.39;62.22;98631.09;5134405;28;19923;-74
2021/05/02 10:21:37;;;;;;;;;;;;;;;16.33;61.61;98647.66;5118118;27;19927;-74
2021/05/02 10:24:06;;;;;;;;;;;;;;;16.29;60.69;98645.25;5138165;27;19931;-74
2021/05/02 10:26:34;;;;;;;;;;;;;;;16.17;60.20;98643.19;5137979;27;19930;-74
2021/05/02 10:29:02;;;;;;;;;;;;;;;16.19;60.39;98654.25;5138094;27;19931;-74
2021/05/02 10:31:30;;;;;;;;;;;;;;;16.16;59.64;98654.34;5137905;27;19923;-74
2021/05/02 10:33:58;;;;;;;;;;;;;;;16.01;59.21;98660.94;5137829;27;20300;-75
2021/05/02 10:36:26;;;;;;;;;;;;;;;15.90;58.08;98669.09;5138250;27;19923;-74
2021/05/02 10:38:54;;;;;;;;;;;;;;;15.78;58.30;98672.13;5119551;27;19931;-74
2021/05/02 10:41:23;;;;;;;;;;;;;;;15.77;57.59;98678.16;5138112;27;20369;-75
2021/05/02 10:43:51;;;;;;;;;;;;;;;15.82;57.73;98681.41;5137751;27;19928;-73
2021/05/02 10:46:30;;;;;;;;;;;;;;;15.75;57.16;98700.53;5137660;27;20299;-74
2021/05/02 10:48:57;;;;;;;;;;;;;;;15.55;56.55;98691.91;5119310;27;19927;-74
2021/05/02 10:51:30;;;;;;;;;;;;;;;15.38;56.87;98684.72;5137602;27;19923;-74
2021/05/02 10:54:01;;;;;;;;;;;;;;;15.37;57.66;98693.34;5137538;27;19924;-73
2021/05/02 10:56:40;;;;;;;;;;;;;;;15.35;57.76;98690.84;5137530;27;20026;-74
2021/05/02 10:59:08;;;;;;;;;;;;;;;15.32;57.47;98705.53;5137485;27;19924;-74
2021/05/02 11:01:36;;;;;;;;;;;;;;;15.34;57.41;98714.03;5137331;27;20368;-74
2021/05/02 11:04:05;;;;;;;;;;;;;;;15.33;57.21;98713.19;5137396;27;19924;-74
2021/05/02 11:06:43;;;;;;;;;;;;;;;15.44;57.51;98720.53;5136940;27;19923;-75
2021/05/02 11:09:12;;;;;;;;;;;;;;;15.57;57.43;98715.81;5137435;27;19924;-77
2021/05/02 11:11:42;;;;;;;;;;;;;;;15.64;56.77;98730.97;5137195;27;19928;-75
2021/05/02 11:14:21;;;;;;;;;;;;;;;15.64;56.89;98730.97;5119106;27;19948;-74
2021/05/02 11:16:51;;;;;;;;;;;;;;;15.63;56.75;98737.00;5136498;27;20388;-74
2021/05/02 11:19:35;;;;;;;;;;;;;;;15.57;55.98;98739.81;5136524;27;19927;-74
2021/05/02 11:22:12;;;;;;;;;;;;;;;15.59;56.19;98750.88;5136626;27;19923;-73
2021/05/02 11:24:51;;;;;;;;;;;;;;;15.64;55.58;98754.13;5136924;27;19924;-75
2021/05/02 11:27:21;;;;;;;;;;;;;;;15.67;55.76;98756.56;5136972;27;20026;-74
2021/05/02 11:30:02;;;;;;;;;;;;;;;15.65;55.62;98758.38;5137133;27;19927;-75
2021/05/02 11:32:39;;;;;;;;;;;;;;;15.53;55.84;98758.81;5136721;27;19924;-75
2021/05/02 11:35:08;;;;;;;;;;;;;;;15.41;56.19;98762.63;5136741;27;19930;-75
2021/05/02 11:37:38;;;;;;;;;;;;;;;15.38;56.04;98774.72;5136659;27;19923;-75
2021/05/02 11:40:17;;;;;;;;;;;;;;;15.33;56.27;98780.03;5136714;27;19966;-75
2021/05/02 11:42:52;;;;;;;;;;;;;;;15.40;55.66;98775.53;5136646;27;19962;-74
2021/05/02 11:45:20;;;;;;;;;;;;;;;15.73;55.64;98791.53;5136652;27;19923;-75
2021/05/02 11:47:50;;;;;;;;;;;;;;;16.04;55.46;98804.97;5136457;27;19925;-75
2021/05/02 11:50:18;;;;;;;;;;;;;;;16.15;55.43;98802.00;5136401;27;20404;-75
2021/05/02 11:52:46;;;;;;;;;;;;;;;16.46;54.98;98807.69;5136434;27;19924;-75
2021/05/02 11:55:25;;;;;;;;;;;;;;;16.63;53.70;98802.72;5136386;27;19931;-74
2021/05/02 11:57:52;;;;;;;;;;;;;;;16.57;53.23;98826.16;5136447;27;20017;-74
2021/05/02 12:00:32;;;;;;;;;;;;;;;16.36;52.62;98832.09;5136384;27;19924;-76
2021/05/02 12:03:01;;;;;;;;;;;;;;;16.25;53.11;98829.06;5136175;27;19979;-75
2021/05/02 12:05:29;;;;;;;;;;;;;;;16.53;53.70;98846.03;5136144;27;19923;-76
2021/05/02 12:08:07;;;;;;;;;;;;;;;16.79;51.82;98849.38;5135978;27;19948;-76
2021/05/02 12:10:36;;;;;;;;;;;;;;;16.87;51.21;98850.72;5136205;27;19930;-75
2021/05/02 12:13:05;;;;;;;;;;;;;;;17.03;51.24;98862.13;5136059;27;19930;-76
2021/05/02 12:15:33;;;;;;;;;;;;;;;17.07;51.26;98868.84;5136178;27;19923;-77
2021/05/02 12:18:02;;;;;;;;;;;;;;;17.09;51.31;98866.19;5135831;27;19924;-76
2021/05/02 12:20:29;;;;;;;;;;;;;;;17.15;51.14;98882.28;5135726;27;19927;-76
2021/05/02 12:22:57;;;;;;;;;;;;;;;17.35;50.78;98887.44;5135822;27;19981;-75
2021/05/02 12:25:25;;;;;;;;;;;;;;;17.51;50.41;98894.56;5135624;27;19930;-76
2021/05/02 12:27:57;;;;;;;;;;;;;;;17.44;49.43;98899.97;5135696;27;20369;-76
2021/05/02 12:30:25;;;;;;;;;;;;;;;17.22;49.37;98899.19;5135650;27;20364;-76
2021/05/02 12:32:54;;;;;;;;;;;;;;;17.04;49.55;98914.50;5135968;27;20399;-75
2021/05/02 12:35:23;;;;;;;;;;;;;;;16.97;50.60;98911.34;5135557;27;19946;-76
2021/05/02 12:37:51;;;;;;;;;;;;;;;16.77;50.33;98926.75;5135448;27;20395;-77
2021/05/02 12:40:19;;;;;;;;;;;;;;;16.53;50.83;98927.66;5135454;27;20391;-76
2021/05/02 12:42:46;;;;;;;;;;;;;;;16.30;51.34;98925.03;5135180;27;19923;-76
2021/05/02 12:45:15;;;;;;;;;;;;;;;16.00;51.37;98938.06;5135372;27;19931;-77
2021/05/02 12:47:46;;;;;;;;;;;;;;;15.84;51.58;98952.38;5117284;27;19984;-76
2021/05/02 12:50:15;;;;;;;;;;;;;;;15.66;51.56;98947.84;5135585;27;19924;-77
2021/05/02 12:52:45;;;;;;;;;;;;;;;15.38;51.87;98953.00;5135407;27;20299;-76
2021/05/02 12:55:17;;;;;;;;;;;;;;;15.28;53.11;98956.75;5135030;27;20414;-76
2021/05/02 12:57:48;;;;;;;;;;;;;;;15.22;53.28;98961.25;5135264;27;19973;-77
2021/05/02 13:00:20;;;;;;;;;;;;;;;15.07;53.27;98961.72;5135048;27;20388;-76
2021/05/02 13:02:50;;;;;;;;;;;;;;;14.97;53.50;98979.13;5134427;27;20382;-75
2021/05/02 13:05:20;;;;;;;;;;;;;;;15.02;53.22;98979.00;5135980;27;19923;-75
2021/05/02 13:07:49;;;;;;;;;;;;;;;15.04;53.45;98969.53;5135931;27;19924;-76